Avisos AEMET Campiña SevillanaSin Avisos+ INFO
Sevilla, Andalucía, España
Idioma: es English Français Deutsch Italiano Português Español
 

Informes METAR

 

LEZL - Sevilla, Spain
Distancia de la estación: ENE 8km
Actualización: 06/02/2023 23:30
Despejado
Despejado
 Viento de S
Viento: S 6 km/h
Temperatura: 10°C
Rocío: 8°C
Humedad: 88%
Barómetro: 1019 hPa
Resumen: Despejado
Visibilidad: mayor de 10 km
2023/02/06 22:30 LEZL 062230Z 18003KT 140V230 CAVOK 10/08 Q1019 NOSIG
LEMO - Morón, Spain
Distancia de la estación: SE 43km
Actualización: 06/02/2023 23:30
Despejado
Despejado
 Viento de SE
Viento: SE 7 km/h
Temperatura: 7°C
Sensación térmica: 6°C
Rocío: 5°C
Humedad: 87%
Barómetro: 1019 hPa
Resumen: Despejado
Visibilidad: mayor de 10 km
2023/02/06 22:30 LEMO 062230Z 13004KT CAVOK 07/05 Q1019 NOSIG
LEJR - Jeréz, Spain
Distancia de la estación: S 71km
Actualización: 06/02/2023 23:30
Despejado
Despejado
 Viento de S
Viento: S 9 km/h
Temperatura: 11°C
Rocío: 9°C
Humedad: 88%
Barómetro: 1019 hPa
Resumen: Despejado
Visibilidad: mayor de 10 km
2023/02/06 22:30 LEJR 062230Z AUTO 18005KT CAVOK 11/09 Q1019
 
LERT - Rota, Spain
Distancia de la estación: SSO 89km
Actualización: 06/02/2023 23:30
Poco nuboso
Poco nuboso
 Viento de SE
Viento: SE 7 km/h
Temperatura: 12°C
Rocío: 10°C
Humedad: 88%
Barómetro: 1019 hPa
Nubes: Poco nuboso
Visibilidad: 10 km
Detalles de las nubes: Poco nuboso 457 m
2023/02/06 22:30 LERT 062230Z 14004KT 9999 FEW015 12/10 Q1019 NOSIG
LEMG - Málaga, Spain
Distancia de la estación: ESE 157km
Actualización: 06/02/2023 23:30
Muy nuboso
Muy nuboso
 Viento de SE
Viento: SE 17 km/h
Temperatura: 14°C
Rocío: 8°C
Humedad: 67%
Barómetro: 1021 hPa
Nubes: Muy nuboso
Visibilidad: 10 km
Detalles de las nubes: Poco nuboso 671 m
Muy nuboso 1067 m
2023/02/06 22:30 LEMG 062230Z 13009KT 100V160 9999 FEW022 BKN035 14/08 Q1021 NOSIG
LEBA - Córdoba, Spain
Distancia de la estación: ENE 115km
Actualización: 06/02/2023 23:30
Muy nuboso
Muy nuboso
 Viento de ENE
Viento: ENE 7 km/h
Temperatura: 9°C
Sensación térmica: 8°C
Rocío: 3°C
Humedad: 66%
Barómetro: 1020 hPa
Nubes: Muy nuboso
Visibilidad: 10 km
Detalles de las nubes: Muy nuboso 1433 m
2023/02/06 22:30 LEBA 062230Z AUTO 06004KT 9999 BKN047 09/03 Q1020
 
LEGR - Granada, Spain
Distancia de la estación: E 198km
Actualización: 06/02/2023 23:30
Cubierto
Cubierto
 Viento de N
Viento: N 4 km/h
Temperatura: 7°C
Rocío: 4°C
Humedad: 81%
Barómetro: 1020 hPa
Nubes: Cubierto
Visibilidad: 10 km
Detalles de las nubes: Cubierto 1463 m
2023/02/06 22:30 LEGR 062230Z AUTO 01002KT 9999 OVC048 07/04 Q1020
LEAM - Almería, Spain
Distancia de la estación: E 326km
Actualización: 06/02/2023 23:30
Cubierto
Cubierto
 Viento de NE
Viento: NE 22 km/h
Temperatura: 12°C
Rocío: 6°C
Humedad: 67%
Barómetro: 1022 hPa
Nubes: Cubierto
Visibilidad: 10 km
Detalles de las nubes: Muy nuboso 1311 m
Cubierto 1737 m
2023/02/06 22:30 LEAM 062230Z AUTO 04012KT 020V080 9999 BKN043 OVC057 12/06 Q1022
LEMD - Madrid/Barajas, Spain
Distancia de la estación: NNE 402km
Actualización: 06/02/2023 23:30
Muy nuboso
Muy nuboso
 Viento de N
Viento: N 6 km/h
Temperatura: 5°C
Rocío: -1°C
Humedad: 66%
Barómetro: 1024 hPa
Nubes: Muy nuboso
Visibilidad: 10 km
Detalles de las nubes: Muy nuboso 2286 m
2023/02/06 22:30 LEMD 062230Z 35003KT 310V070 9999 BKN075 05/M01 Q1024 NOSIG
 
LEVD - Valladolid, Spain
Distancia de la estación: N 492km
Actualización: 06/02/2023 23:30
Despejado
Despejado
 Viento de ENE
Viento: ENE 24 km/h
Temperatura: 0°C
Sensación térmica: -6°C
Rocío: -3°C
Humedad: 80%
Barómetro: 1024 hPa
Resumen: Despejado
Visibilidad: mayor de 10 km
2023/02/06 22:30 LEVD 062230Z AUTO 07013KT CAVOK 00/M03 Q1024
LEBL - Barcelona, Spain
Distancia de la estación: NE 816km
Actualización: 06/02/2023 23:30
Poco nuboso
Poco nuboso
 Viento de NE
Viento: NE 22 km/h
Temperatura: 10°C
Sensación térmica: 7°C
Rocío: -1°C
Humedad: 47%
Barómetro: 1025 hPa
Nubes: Poco nuboso
Visibilidad: 10 km
Detalles de las nubes: Poco nuboso 1524 m
2023/02/06 22:30 LEBL 062230Z 04012KT 9999 FEW050 10/M01 Q1025 NOSIG
LEVC - Valencia, Spain
Distancia de la estación: ENE 535km
Actualización: 06/02/2023 23:30
Lluvia débil, Parcialmente nuboso
Lluvia débil, Parcialmente nuboso
 Viento de NNE
Viento: NNE 17 km/h
Temperatura: 9°C
Sensación térmica: 7°C
Rocío: 5°C
Humedad: 76%
Barómetro: 1026 hPa
Resumen: Lluvia débil
Nubes: Parcialmente nuboso
Visibilidad: 10 km
Detalles de las nubes: Poco nuboso 671 m
Parcialmente nuboso 975 m
2023/02/06 22:30 LEVC 062230Z 02009KT 350V070 9999 -RA FEW022 SCT032 09/05 Q1026 NOSIG